Time;durP1;ratioP1;P1;durP2;ratioP2;P2;SDS_P1;SDS_P2;PMS_P1;PMS_P2;Temp;Humidity;BMP_temperature;BMP_pressure;BME280_temperature;BME280_humidity;BME280_pressure;Samples;Min_cycle;Max_cycle;Signal;HPM_P1;HPM_P2
2023/04/23 00:00:21;;;;;;;9.40;6.40;;;;;;;;;;4997908;28;20038;-94
2023/04/23 00:02:52;;;;;;;8.55;5.65;;;;;;;;;;4998027;28;20018;-95
2023/04/23 00:05:19;;;;;;;10.35;5.70;;;;;;;;;;4998126;28;20026;-93
2023/04/23 00:07:47;;;;;;;10.60;5.85;;;;;;;;;;4997996;28;20120;-94
2023/04/23 00:10:16;;;;;;;10.52;6.03;;;;;;;;;;4997463;28;20032;-95
2023/04/23 00:12:42;;;;;;;10.25;6.20;;;;;;;;;;4997792;28;20100;-93
2023/04/23 00:15:09;;;;;;;9.05;6.15;;;;;;;;;;4997785;28;20034;-93
2023/04/23 00:17:35;;;;;;;11.60;6.47;;;;;;;;;;4997545;28;20045;-94
2023/04/23 00:20:01;;;;;;;11.25;5.50;;;;;;;;;;4997503;28;20496;-94
2023/04/23 00:22:30;;;;;;;9.48;5.63;;;;;;;;;;4997661;28;20092;-95
2023/04/23 00:24:59;;;;;;;8.27;6.38;;;;;;;;;;4997593;28;20061;-95
2023/04/23 00:27:27;;;;;;;9.02;5.35;;;;;;;;;;4997590;28;20046;-94
2023/04/23 00:29:53;;;;;;;7.32;5.28;;;;;;;;;;4997420;28;20080;-95
2023/04/23 00:32:21;;;;;;;6.38;4.88;;;;;;;;;;4997255;28;20036;-94
2023/04/23 00:34:50;;;;;;;8.65;5.30;;;;;;;;;;4997236;28;20473;-95
2023/04/23 00:37:19;;;;;;;7.05;5.25;;;;;;;;;;4997183;28;20113;-94
2023/04/23 00:39:48;;;;;;;6.75;5.13;;;;;;;;;;4997178;28;20164;-94
2023/04/23 00:42:16;;;;;;;10.00;5.22;;;;;;;;;;4997591;28;20026;-94
2023/04/23 00:44:42;;;;;;;10.32;5.82;;;;;;;;;;4997313;28;20369;-94
2023/04/23 00:47:09;;;;;;;7.60;5.03;;;;;;;;;;4997199;28;20022;-96
2023/04/23 00:49:38;;;;;;;7.95;4.45;;;;;;;;;;4997133;28;20156;-94
2023/04/23 00:52:07;;;;;;;11.48;4.97;;;;;;;;;;4996996;28;20057;-94
2023/04/23 00:54:33;;;;;;;9.75;4.45;;;;;;;;;;4997242;28;20453;-94
2023/04/23 00:57:00;;;;;;;7.38;4.22;;;;;;;;;;4997155;28;20022;-94
2023/04/23 00:59:27;;;;;;;7.15;4.07;;;;;;;;;;4997365;28;20053;-94
2023/04/23 01:01:56;;;;;;;5.22;3.53;;;;;;;;;;4997128;28;20022;-94
2023/04/23 01:04:26;;;;;;;5.88;3.67;;;;;;;;;;4997170;28;20093;-95
2023/04/23 01:06:53;;;;;;;5.80;3.80;;;;;;;;;;4997423;28;20026;-95
2023/04/23 01:09:19;;;;;;;7.60;4.18;;;;;;;;;;4996926;28;20072;-93
2023/04/23 01:11:46;;;;;;;7.82;3.97;;;;;;;;;;4997260;28;20042;-95
2023/04/23 01:14:13;;;;;;;4.25;2.83;;;;;;;;;;4996975;28;20030;-95
2023/04/23 01:16:39;;;;;;;5.72;3.72;;;;;;;;;;4997120;28;20030;-94
2023/04/23 01:19:07;;;;;;;7.47;3.88;;;;;;;;;;4996958;28;20026;-94
2023/04/23 01:21:39;;;;;;;9.00;3.75;;;;;;;;;;4996834;28;20050;-94
2023/04/23 01:24:05;;;;;;;10.32;4.55;;;;;;;;;;4997206;28;20033;-95
2023/04/23 01:26:32;;;;;;;6.35;3.78;;;;;;;;;;4996861;28;20026;-94
2023/04/23 01:28:58;;;;;;;8.13;3.97;;;;;;;;;;4996939;28;20076;-95
2023/04/23 01:31:25;;;;;;;6.07;3.70;;;;;;;;;;4996941;28;20065;-95
2023/04/23 01:33:52;;;;;;;6.72;3.40;;;;;;;;;;4996875;28;20034;-93
2023/04/23 01:36:19;;;;;;;6.03;3.72;;;;;;;;;;4997275;28;20495;-94
2023/04/23 01:38:45;;;;;;;8.77;3.70;;;;;;;;;;4996824;28;20022;-94
2023/04/23 01:41:11;;;;;;;6.60;3.28;;;;;;;;;;4996720;28;20480;-94
2023/04/23 01:43:37;;;;;;;7.68;3.40;;;;;;;;;;4996798;28;20049;-94
2023/04/23 01:46:11;;;;;;;7.82;3.58;;;;;;;;;;4996668;28;20058;-94
2023/04/23 01:48:37;;;;;;;7.32;3.40;;;;;;;;;;4999148;28;20057;-93
2023/04/23 01:51:06;;;;;;;4.10;3.40;;;;;;;;;;5000314;28;20061;-94
2023/04/23 01:53:32;;;;;;;4.55;3.45;;;;;;;;;;5000565;28;20069;-95
2023/04/23 01:56:00;;;;;;;4.90;3.55;;;;;;;;;;5000273;28;20130;-95
2023/04/23 01:58:26;;;;;;;5.15;2.90;;;;;;;;;;4991928;28;20026;-95
2023/04/23 02:00:52;;;;;;;7.07;2.85;;;;;;;;;;5000221;28;20456;-94
2023/04/23 02:03:18;;;;;;;8.00;3.47;;;;;;;;;;5000411;28;20080;-94
2023/04/23 02:05:45;;;;;;;6.85;3.15;;;;;;;;;;5000182;28;20022;-95
2023/04/23 02:08:11;;;;;;;6.80;3.60;;;;;;;;;;5000244;28;20083;-94
2023/04/23 02:10:39;;;;;;;5.45;2.72;;;;;;;;;;5000198;28;20037;-94
2023/04/23 02:13:06;;;;;;;6.78;2.65;;;;;;;;;;4999889;28;20539;-95
2023/04/23 02:15:32;;;;;;;8.95;3.03;;;;;;;;;;4999852;28;20026;-94
2023/04/23 02:17:59;;;;;;;7.15;3.35;;;;;;;;;;4999904;28;20397;-94
2023/04/23 02:20:25;;;;;;;5.00;3.30;;;;;;;;;;4999682;28;20072;-95
2023/04/23 02:22:51;;;;;;;7.07;3.50;;;;;;;;;;4999776;28;20025;-94
2023/04/23 02:25:20;;;;;;;5.25;2.53;;;;;;;;;;4999718;28;20022;-95
2023/04/23 02:27:49;;;;;;;9.75;3.13;;;;;;;;;;4999625;28;20428;-94
2023/04/23 02:30:16;;;;;;;6.30;2.90;;;;;;;;;;4984013;28;20100;-95
2023/04/23 02:32:43;;;;;;;9.43;2.83;;;;;;;;;;4999554;28;20061;-94
2023/04/23 02:35:09;;;;;;;6.03;3.10;;;;;;;;;;5000040;28;20033;-95
2023/04/23 02:37:38;;;;;;;7.28;2.78;;;;;;;;;;4999541;28;20037;-95
2023/04/23 02:40:09;;;;;;;4.53;2.90;;;;;;;;;;4999463;28;20459;-95
2023/04/23 02:42:35;;;;;;;7.85;3.30;;;;;;;;;;4999496;28;20022;-94
2023/04/23 02:45:02;;;;;;;4.40;2.63;;;;;;;;;;4999602;28;20025;-95
2023/04/23 02:47:30;;;;;;;8.60;3.20;;;;;;;;;;4999378;28;20056;-95
2023/04/23 02:50:02;;;;;;;6.45;2.45;;;;;;;;;;4999371;28;20117;-95
2023/04/23 02:52:28;;;;;;;7.57;3.45;;;;;;;;;;4999367;28;20029;-95
2023/04/23 02:54:54;;;;;;;6.70;3.05;;;;;;;;;;4999280;28;20030;-95
2023/04/23 02:57:20;;;;;;;9.30;3.85;;;;;;;;;;4999291;28;20057;-94
2023/04/23 02:59:49;;;;;;;5.25;3.50;;;;;;;;;;4999042;28;20026;-94
2023/04/23 03:02:15;;;;;;;9.15;2.95;;;;;;;;;;4999266;28;20029;-94
2023/04/23 03:04:41;;;;;;;8.35;3.55;;;;;;;;;;4999014;28;20061;-94
2023/04/23 03:07:08;;;;;;;8.25;3.13;;;;;;;;;;4998780;28;20048;-94
2023/04/23 03:09:34;;;;;;;6.60;3.15;;;;;;;;;;4998837;28;20479;-94
2023/04/23 03:12:01;;;;;;;12.25;3.60;;;;;;;;;;4998626;28;20046;-94
2023/04/23 03:14:29;;;;;;;8.48;3.67;;;;;;;;;;4998752;28;20113;-94
2023/04/23 03:16:58;;;;;;;6.68;3.00;;;;;;;;;;4998808;28;20026;-95
2023/04/23 03:19:24;;;;;;;5.75;2.80;;;;;;;;;;4998976;28;20388;-94
2023/04/23 03:21:50;;;;;;;5.07;2.83;;;;;;;;;;4998677;28;20528;-95
2023/04/23 03:24:17;;;;;;;6.25;2.95;;;;;;;;;;4998581;28;20026;-94
2023/04/23 03:26:43;;;;;;;5.20;2.60;;;;;;;;;;4998568;28;20018;-95
2023/04/23 03:29:09;;;;;;;7.65;3.10;;;;;;;;;;4998657;28;20065;-94
2023/04/23 03:31:36;;;;;;;9.07;2.53;;;;;;;;;;4998633;28;20026;-94
2023/04/23 03:34:02;;;;;;;5.30;2.92;;;;;;;;;;4998284;28;20033;-93
2023/04/23 03:36:31;;;;;;;11.18;3.75;;;;;;;;;;4999103;28;20033;-95
2023/04/23 03:39:07;;;;;;;6.95;2.70;;;;;;;;;;4998557;28;20080;-95
2023/04/23 03:41:33;;;;;;;5.25;2.70;;;;;;;;;;4998324;28;20373;-94
2023/04/23 03:43:59;;;;;;;7.60;2.67;;;;;;;;;;4998344;28;20033;-94
2023/04/23 03:46:26;;;;;;;9.65;2.88;;;;;;;;;;4998193;28;20053;-94
2023/04/23 03:48:52;;;;;;;9.50;3.15;;;;;;;;;;4998394;28;20029;-94
2023/04/23 03:51:20;;;;;;;4.78;2.80;;;;;;;;;;4998066;28;20033;-94
2023/04/23 03:53:47;;;;;;;11.45;3.60;;;;;;;;;;4998025;28;20036;-95
2023/04/23 03:56:13;;;;;;;6.28;3.25;;;;;;;;;;4998035;28;20030;-94
2023/04/23 03:58:39;;;;;;;7.60;3.20;;;;;;;;;;4997966;28;20026;-93
2023/04/23 04:01:05;;;;;;;4.10;3.03;;;;;;;;;;4997811;28;20160;-94
2023/04/23 04:03:32;;;;;;;3.70;2.90;;;;;;;;;;4997736;28;20057;-94
2023/04/23 04:06:00;;;;;;;6.43;3.55;;;;;;;;;;4997780;28;20028;-94
2023/04/23 04:08:33;;;;;;;10.55;3.00;;;;;;;;;;4998112;28;20060;-94
2023/04/23 04:11:00;;;;;;;9.05;3.38;;;;;;;;;;4997157;28;20087;-94
2023/04/23 04:13:28;;;;;;;11.02;3.42;;;;;;;;;;4997667;28;20077;-93
2023/04/23 04:15:59;;;;;;;7.43;3.78;;;;;;;;;;4997578;28;20392;-94
2023/04/23 04:18:42;;;;;;;5.60;3.30;;;;;;;;;;4997635;28;20032;-94
2023/04/23 04:21:10;;;;;;;9.40;2.95;;;;;;;;;;4997643;28;20037;-93
2023/04/23 04:23:36;;;;;;;9.70;3.10;;;;;;;;;;4997783;28;20460;-94
2023/04/23 04:26:03;;;;;;;7.30;2.63;;;;;;;;;;4997667;28;20388;-94
2023/04/23 04:28:34;;;;;;;6.38;2.42;;;;;;;;;;4997500;28;20564;-92
2023/04/23 04:31:01;;;;;;;4.65;2.42;;;;;;;;;;4997388;28;20029;-94
2023/04/23 04:33:29;;;;;;;4.10;2.50;;;;;;;;;;4997542;28;20057;-95
2023/04/23 04:35:59;;;;;;;8.18;2.90;;;;;;;;;;4997394;28;20040;-93
2023/04/23 04:38:31;;;;;;;6.55;2.95;;;;;;;;;;4997437;28;20030;-93
2023/04/23 04:41:00;;;;;;;9.38;2.78;;;;;;;;;;4997902;28;20384;-94
2023/04/23 04:43:29;;;;;;;7.10;3.05;;;;;;;;;;4989314;28;20033;-94
2023/04/23 04:46:04;;;;;;;7.50;2.88;;;;;;;;;;4997340;28;20109;-94
2023/04/23 04:48:30;;;;;;;7.25;2.70;;;;;;;;;;4997251;28;20021;-93
2023/04/23 04:50:56;;;;;;;6.07;2.42;;;;;;;;;;4997319;28;20424;-93
2023/04/23 04:53:22;;;;;;;9.15;2.55;;;;;;;;;;4997166;28;20384;-93
2023/04/23 04:55:51;;;;;;;5.28;2.47;;;;;;;;;;4997361;28;20029;-92
2023/04/23 04:58:19;;;;;;;4.82;2.35;;;;;;;;;;4997083;28;20144;-92
2023/04/23 05:00:47;;;;;;;8.00;2.75;;;;;;;;;;4997072;28;20033;-93
2023/04/23 05:03:14;;;;;;;9.75;2.60;;;;;;;;;;4997058;28;20029;-94
2023/04/23 05:05:40;;;;;;;5.85;2.80;;;;;;;;;;4997472;28;20021;-93
2023/04/23 05:08:07;;;;;;;6.78;2.95;;;;;;;;;;4997078;28;20029;-93
2023/04/23 05:10:33;;;;;;;4.78;2.97;;;;;;;;;;4997203;28;20083;-93
2023/04/23 05:13:00;;;;;;;8.45;2.50;;;;;;;;;;4996928;28;20121;-94
2023/04/23 05:15:26;;;;;;;8.02;2.47;;;;;;;;;;4997019;28;20033;-94
2023/04/23 05:17:53;;;;;;;6.32;3.38;;;;;;;;;;4996946;28;20065;-93
2023/04/23 05:20:19;;;;;;;7.38;2.90;;;;;;;;;;4996910;28;20033;-93
2023/04/23 05:22:46;;;;;;;8.27;3.10;;;;;;;;;;5000012;28;20057;-94
2023/04/23 05:25:12;;;;;;;5.68;3.20;;;;;;;;;;5001112;28;20507;-93
2023/04/23 05:27:38;;;;;;;4.60;2.75;;;;;;;;;;5000829;28;20018;-93
2023/04/23 05:30:06;;;;;;;6.15;3.30;;;;;;;;;;5001009;28;20033;-93
2023/04/23 05:32:33;;;;;;;7.05;2.75;;;;;;;;;;5000745;28;20022;-93
2023/04/23 05:35:02;;;;;;;5.50;3.13;;;;;;;;;;5000748;28;20057;-94
2023/04/23 05:37:29;;;;;;;6.18;3.30;;;;;;;;;;4992865;28;20029;-93
2023/04/23 05:39:57;;;;;;;8.15;3.10;;;;;;;;;;5000573;28;20033;-92
2023/04/23 05:42:23;;;;;;;10.45;4.53;;;;;;;;;;5000342;28;20076;-94
2023/04/23 05:44:49;;;;;;;7.00;3.97;;;;;;;;;;5000530;28;20476;-94
2023/04/23 05:47:16;;;;;;;7.68;4.82;;;;;;;;;;5000725;28;20058;-93
2023/04/23 05:49:42;;;;;;;8.82;4.57;;;;;;;;;;5000416;28;20468;-94
2023/04/23 05:52:10;;;;;;;8.63;4.00;;;;;;;;;;5000369;28;20076;-93
2023/04/23 05:54:39;;;;;;;5.68;3.63;;;;;;;;;;5000306;28;20018;-94
2023/04/23 05:57:08;;;;;;;6.38;3.83;;;;;;;;;;5000613;28;20025;-93
2023/04/23 05:59:34;;;;;;;5.90;3.95;;;;;;;;;;5000121;28;20559;-94
2023/04/23 06:02:00;;;;;;;10.60;5.50;;;;;;;;;;5000027;28;20108;-93
2023/04/23 06:04:26;;;;;;;13.38;5.55;;;;;;;;;;5000265;28;20458;-93
2023/04/23 06:06:52;;;;;;;10.40;4.97;;;;;;;;;;5000252;28;20374;-94
2023/04/23 06:09:21;;;;;;;9.15;5.18;;;;;;;;;;5000092;28;20041;-93
2023/04/23 06:11:49;;;;;;;9.40;5.15;;;;;;;;;;5000036;28;20056;-94
2023/04/23 06:14:16;;;;;;;6.93;4.65;;;;;;;;;;4999873;28;20472;-94
2023/04/23 06:16:42;;;;;;;7.50;4.78;;;;;;;;;;4999889;28;20480;-94
2023/04/23 06:19:08;;;;;;;7.38;4.80;;;;;;;;;;5000010;28;20021;-93
2023/04/23 06:21:34;;;;;;;6.68;4.85;;;;;;;;;;4999335;28;20065;-94
2023/04/23 06:24:00;;;;;;;9.38;4.78;;;;;;;;;;4999801;28;20155;-94
2023/04/23 06:26:27;;;;;;;10.88;5.63;;;;;;;;;;4999896;28;20029;-94
2023/04/23 06:28:53;;;;;;;7.97;4.82;;;;;;;;;;4999720;28;20022;-93
2023/04/23 06:31:19;;;;;;;11.20;5.80;;;;;;;;;;4999856;28;20030;-94
2023/04/23 06:33:45;;;;;;;11.70;5.18;;;;;;;;;;4999584;28;20484;-94
2023/04/23 06:36:13;;;;;;;9.68;5.40;;;;;;;;;;4999678;28;20026;-94
2023/04/23 06:38:43;;;;;;;6.68;5.25;;;;;;;;;;4999448;28;20026;-93
2023/04/23 06:41:11;;;;;;;11.07;5.55;;;;;;;;;;4999760;28;20030;-94
2023/04/23 06:43:40;;;;;;;12.18;6.90;;;;;;;;;;4999507;28;20018;-94
2023/04/23 06:46:09;;;;;;;9.07;6.13;;;;;;;;;;4999273;28;20471;-93
2023/04/23 06:48:37;;;;;;;11.75;7.70;;;;;;;;;;4999464;28;20022;-94
2023/04/23 06:51:04;;;;;;;9.20;6.18;;;;;;;;;;4999072;28;20059;-94
2023/04/23 06:53:31;;;;;;;12.48;8.48;;;;;;;;;;4999349;28;20033;-94
2023/04/23 06:55:57;;;;;;;10.43;7.05;;;;;;;;;;4999200;28;20025;-93
2023/04/23 06:58:29;;;;;;;12.77;8.32;;;;;;;;;;4998991;28;20026;-94
2023/04/23 07:00:58;;;;;;;11.27;7.60;;;;;;;;;;4999049;28;20062;-94
2023/04/23 07:03:25;;;;;;;12.77;7.38;;;;;;;;;;4999088;28;20061;-95
2023/04/23 07:05:51;;;;;;;11.13;7.28;;;;;;;;;;4999034;28;20028;-94
2023/04/23 07:08:19;;;;;;;13.15;7.10;;;;;;;;;;4998929;28;20114;-94
2023/04/23 07:10:46;;;;;;;10.77;6.68;;;;;;;;;;4999102;28;20121;-94
2023/04/23 07:13:12;;;;;;;9.85;6.28;;;;;;;;;;4998555;28;20107;-94
2023/04/23 07:15:41;;;;;;;11.23;5.50;;;;;;;;;;4998855;28;20556;-92
2023/04/23 07:18:08;;;;;;;10.95;6.85;;;;;;;;;;4999057;28;20060;-93
2023/04/23 07:20:34;;;;;;;10.98;6.40;;;;;;;;;;4998976;28;20133;-93
2023/04/23 07:23:03;;;;;;;11.10;6.25;;;;;;;;;;4998823;28;20025;-94
2023/04/23 07:25:31;;;;;;;8.05;5.07;;;;;;;;;;4998801;28;20507;-93
2023/04/23 07:27:58;;;;;;;6.78;4.90;;;;;;;;;;4998887;28;20022;-94
2023/04/23 07:30:32;;;;;;;9.27;4.90;;;;;;;;;;4998698;28;20547;-93
2023/04/23 07:32:58;;;;;;;6.90;4.63;;;;;;;;;;4999098;28;20113;-94
2023/04/23 07:35:25;;;;;;;6.53;4.88;;;;;;;;;;4998582;28;20022;-94
2023/04/23 07:37:54;;;;;;;9.57;5.43;;;;;;;;;;4998718;28;20026;-94
2023/04/23 07:40:24;;;;;;;9.25;5.40;;;;;;;;;;4998441;28;20068;-94
2023/04/23 07:42:52;;;;;;;8.95;5.43;;;;;;;;;;4998665;28;20112;-94
2023/04/23 07:45:19;;;;;;;7.70;4.97;;;;;;;;;;4997662;28;20472;-93
2023/04/23 07:47:47;;;;;;;10.68;5.25;;;;;;;;;;4998318;28;20017;-94
2023/04/23 07:50:13;;;;;;;8.05;5.10;;;;;;;;;;4998255;28;20048;-93
2023/04/23 07:52:40;;;;;;;7.00;4.55;;;;;;;;;;4998272;28;20030;-93
2023/04/23 07:55:06;;;;;;;10.13;5.25;;;;;;;;;;4998255;28;20022;-94
2023/04/23 07:57:33;;;;;;;8.05;5.50;;;;;;;;;;4998244;28;20468;-92
2023/04/23 08:00:01;;;;;;;9.98;5.10;;;;;;;;;;4998029;28;20025;-94
2023/04/23 08:02:30;;;;;;;9.27;5.88;;;;;;;;;;4997994;28;20120;-94
2023/04/23 08:04:59;;;;;;;12.48;5.50;;;;;;;;;;4998060;28;20108;-94
2023/04/23 08:07:25;;;;;;;9.48;5.88;;;;;;;;;;4998100;28;20037;-94
2023/04/23 08:09:51;;;;;;;13.80;6.90;;;;;;;;;;4997906;28;20030;-93
2023/04/23 08:12:21;;;;;;;16.17;6.63;;;;;;;;;;4997831;28;20132;-93
2023/04/23 08:14:49;;;;;;;10.70;6.53;;;;;;;;;;4998334;28;20025;-94
2023/04/23 08:17:15;;;;;;;9.43;5.22;;;;;;;;;;4997654;28;20032;-95
2023/04/23 08:19:42;;;;;;;7.55;5.13;;;;;;;;;;4998097;28;20410;-95
2023/04/23 08:22:09;;;;;;;10.50;5.10;;;;;;;;;;4997681;28;20026;-94
2023/04/23 08:24:35;;;;;;;9.70;5.80;;;;;;;;;;4997516;28;20030;-94
2023/04/23 08:27:01;;;;;;;8.05;5.03;;;;;;;;;;4997766;28;20076;-94
2023/04/23 08:29:42;;;;;;;9.15;5.07;;;;;;;;;;4997588;28;20476;-93
2023/04/23 08:32:09;;;;;;;7.90;5.32;;;;;;;;;;4997780;28;20029;-94
2023/04/23 08:34:35;;;;;;;9.18;5.43;;;;;;;;;;4998700;28;20115;-94
2023/04/23 08:37:02;;;;;;;9.20;5.30;;;;;;;;;;4997359;28;20025;-94
2023/04/23 08:39:31;;;;;;;10.32;5.25;;;;;;;;;;4997606;28;20033;-94
2023/04/23 08:42:04;;;;;;;9.95;5.47;;;;;;;;;;4997567;28;20018;-94
2023/04/23 08:44:34;;;;;;;10.25;5.07;;;;;;;;;;4997894;28;20026;-93
2023/04/23 08:47:00;;;;;;;10.82;4.85;;;;;;;;;;4997377;28;20022;-94
2023/04/23 08:49:32;;;;;;;10.30;5.53;;;;;;;;;;4997359;28;20061;-94
2023/04/23 08:52:00;;;;;;;9.40;5.43;;;;;;;;;;4997680;28;20034;-94
2023/04/23 08:54:28;;;;;;;8.80;5.50;;;;;;;;;;4997536;28;20358;-93
2023/04/23 08:57:00;;;;;;;8.02;5.00;;;;;;;;;;4996964;28;20053;-94
2023/04/23 08:59:29;;;;;;;11.13;5.30;;;;;;;;;;4997267;28;20484;-94
2023/04/23 09:01:55;;;;;;;7.75;4.88;;;;;;;;;;4997066;28;20034;-95
2023/04/23 09:04:23;;;;;;;9.95;5.10;;;;;;;;;;4997648;28;20030;-93
2023/04/23 09:06:52;;;;;;;14.88;10.25;;;;;;;;;;4997163;28;20021;-94
2023/04/23 09:09:18;;;;;;;15.48;11.20;;;;;;;;;;4997201;28;20117;-93
2023/04/23 09:11:44;;;;;;;18.05;12.45;;;;;;;;;;4997000;28;20047;-95
2023/04/23 09:14:12;;;;;;;16.05;9.38;;;;;;;;;;4997247;28;20025;-94
2023/04/23 09:16:41;;;;;;;11.40;6.88;;;;;;;;;;4996952;28;20029;-93
2023/04/23 09:19:11;;;;;;;10.13;5.70;;;;;;;;;;4997134;28;20400;-95
2023/04/23 09:21:39;;;;;;;9.35;5.00;;;;;;;;;;4997083;28;20109;-94
2023/04/23 09:24:06;;;;;;;10.23;4.85;;;;;;;;;;4996886;28;20093;-94
2023/04/23 09:26:32;;;;;;;9.88;5.97;;;;;;;;;;4997034;28;20485;-94
2023/04/23 09:28:58;;;;;;;7.65;5.63;;;;;;;;;;4997106;28;20025;-94
2023/04/23 09:31:24;;;;;;;7.90;5.00;;;;;;;;;;4996875;28;20089;-94
2023/04/23 09:33:52;;;;;;;9.65;5.30;;;;;;;;;;4997291;28;20416;-94
2023/04/23 09:36:21;;;;;;;9.23;5.07;;;;;;;;;;4997211;28;20025;-94
2023/04/23 09:38:47;;;;;;;9.82;5.22;;;;;;;;;;4996748;28;20026;-93
2023/04/23 09:41:22;;;;;;;9.70;5.10;;;;;;;;;;4996979;28;20185;-93
2023/04/23 09:43:50;;;;;;;10.80;4.63;;;;;;;;;;4997562;28;20025;-94
2023/04/23 09:46:24;;;;;;;7.95;5.00;;;;;;;;;;4997046;28;20057;-94
2023/04/23 09:48:51;;;;;;;6.45;4.40;;;;;;;;;;4996960;28;20152;-93
2023/04/23 09:51:17;;;;;;;7.72;4.53;;;;;;;;;;4996887;28;20026;-94
2023/04/23 09:53:44;;;;;;;8.38;5.20;;;;;;;;;;4997011;28;20026;-96
2023/04/23 09:56:13;;;;;;;11.50;4.80;;;;;;;;;;4997109;28;20026;-94
2023/04/23 09:58:39;;;;;;;10.95;5.43;;;;;;;;;;4996713;28;20033;-94
2023/04/23 10:01:14;;;;;;;7.32;4.70;;;;;;;;;;4996482;28;20037;-94
2023/04/23 10:03:43;;;;;;;8.07;5.15;;;;;;;;;;4996699;28;20075;-95
2023/04/23 10:06:16;;;;;;;5.55;4.38;;;;;;;;;;4996810;28;20034;-95
2023/04/23 10:08:43;;;;;;;6.90;4.55;;;;;;;;;;4997451;28;20029;-95
2023/04/23 10:11:09;;;;;;;7.88;4.15;;;;;;;;;;4999962;28;20113;-94
2023/04/23 10:13:35;;;;;;;11.20;4.68;;;;;;;;;;4999936;28;20056;-95
2023/04/23 10:16:03;;;;;;;6.53;4.25;;;;;;;;;;5000270;28;20496;-93
2023/04/23 10:18:31;;;;;;;6.80;4.07;;;;;;;;;;5000006;28;20093;-94
2023/04/23 10:20:57;;;;;;;7.55;4.05;;;;;;;;;;5000146;28;20022;-95
2023/04/23 10:23:23;;;;;;;7.38;4.30;;;;;;;;;;5000009;28;20085;-94
2023/04/23 10:25:52;;;;;;;8.38;4.22;;;;;;;;;;4999816;28;20168;-93
2023/04/23 10:28:25;;;;;;;9.10;4.07;;;;;;;;;;5000034;28;20080;-94
2023/04/23 10:30:52;;;;;;;8.32;4.55;;;;;;;;;;4999790;28;20030;-94
2023/04/23 10:33:22;;;;;;;6.93;4.28;;;;;;;;;;4999819;28;20599;-93
2023/04/23 10:35:48;;;;;;;6.65;4.22;;;;;;;;;;5000465;28;20117;-94
2023/04/23 10:38:15;;;;;;;7.80;5.25;;;;;;;;;;5000526;28;20539;-93
2023/04/23 10:40:45;;;;;;;6.47;4.13;;;;;;;;;;4999410;28;20033;-94
2023/04/23 10:43:13;;;;;;;6.20;4.57;;;;;;;;;;4999828;28;20049;-95
2023/04/23 10:45:42;;;;;;;7.07;4.18;;;;;;;;;;4999538;28;20022;-95
2023/04/23 10:48:11;;;;;;;9.75;4.80;;;;;;;;;;4999592;28;20029;-94
2023/04/23 10:50:37;;;;;;;6.53;4.40;;;;;;;;;;4999386;28;20080;-95
2023/04/23 10:53:03;;;;;;;7.90;4.22;;;;;;;;;;4999566;28;20076;-95
2023/04/23 10:55:32;;;;;;;5.63;4.05;;;;;;;;;;4999399;28;20022;-94
2023/04/23 10:58:01;;;;;;;7.30;4.15;;;;;;;;;;4999497;28;20076;-93
2023/04/23 11:00:44;;;;;;;8.30;4.80;;;;;;;;;;4999277;28;20026;-94
2023/04/23 11:03:43;;;;;;;9.40;4.55;;;;;;;;;;4999306;28;20042;-96
2023/04/23 11:06:14;;;;;;;8.00;3.75;;;;;;;;;;4967689;28;20033;-94
2023/04/23 11:08:53;;;;;;;5.50;4.05;;;;;;;;;;4999001;28;20022;-95
2023/04/23 11:11:24;;;;;;;8.55;3.92;;;;;;;;;;4999239;28;20041;-94
2023/04/23 11:13:54;;;;;;;6.20;3.83;;;;;;;;;;4999086;28;20033;-95
2023/04/23 11:16:23;;;;;;;8.00;4.45;;;;;;;;;;4998860;28;20037;-94
2023/04/23 11:19:03;;;;;;;8.07;4.07;;;;;;;;;;4998996;28;20447;-93
2023/04/23 11:21:51;;;;;;;6.70;4.13;;;;;;;;;;4998787;28;20034;-94
2023/04/23 11:24:17;;;;;;;8.13;4.35;;;;;;;;;;4999008;28;20092;-94
2023/04/23 11:26:43;;;;;;;6.65;4.20;;;;;;;;;;4998747;28;20542;-94
2023/04/23 11:29:13;;;;;;;6.85;4.22;;;;;;;;;;4998766;28;20037;-93
2023/04/23 11:31:42;;;;;;;7.68;3.72;;;;;;;;;;4998674;28;20026;-93
2023/04/23 11:34:16;;;;;;;12.00;4.30;;;;;;;;;;4998517;28;20033;-93
2023/04/23 11:36:42;;;;;;;5.72;3.80;;;;;;;;;;4998697;28;20025;-95
2023/04/23 11:39:11;;;;;;;10.10;4.40;;;;;;;;;;4998683;28;20045;-93
2023/04/23 11:41:37;;;;;;;4.93;3.78;;;;;;;;;;4998322;28;20080;-95
2023/04/23 11:44:03;;;;;;;5.80;3.63;;;;;;;;;;4998570;28;20476;-94
2023/04/23 11:46:32;;;;;;;10.68;4.03;;;;;;;;;;4999155;28;20524;-95
2023/04/23 11:49:01;;;;;;;7.38;4.53;;;;;;;;;;4998224;28;20029;-94
2023/04/23 11:51:30;;;;;;;5.20;3.67;;;;;;;;;;4998370;28;20480;-94
2023/04/23 11:54:02;;;;;;;5.72;3.70;;;;;;;;;;4998388;28;20032;-93
2023/04/23 11:56:31;;;;;;;12.80;3.67;;;;;;;;;;4998479;28;20053;-94
2023/04/23 11:58:59;;;;;;;5.90;4.18;;;;;;;;;;4998017;28;20049;-94
2023/04/23 12:01:25;;;;;;;4.68;3.10;;;;;;;;;;4998459;28;20507;-94
2023/04/23 12:03:51;;;;;;;7.10;3.58;;;;;;;;;;4998209;28;20026;-94
2023/04/23 12:06:18;;;;;;;4.57;3.25;;;;;;;;;;4998622;28;20045;-93
2023/04/23 12:08:46;;;;;;;4.68;3.42;;;;;;;;;;4998203;28;20032;-93
2023/04/23 12:11:12;;;;;;;8.45;3.50;;;;;;;;;;4998265;28;20022;-93
2023/04/23 12:13:42;;;;;;;8.90;3.80;;;;;;;;;;4997787;28;20120;-94
2023/04/23 12:16:10;;;;;;;6.10;3.90;;;;;;;;;;4997881;28;20033;-94
2023/04/23 12:18:43;;;;;;;8.77;3.80;;;;;;;;;;4998109;28;20121;-95
2023/04/23 12:21:10;;;;;;;7.43;3.63;;;;;;;;;;4997772;28;20041;-95
2023/04/23 12:23:40;;;;;;;5.55;3.50;;;;;;;;;;4997761;28;20022;-93
2023/04/23 12:26:13;;;;;;;7.72;4.18;;;;;;;;;;4997702;28;20022;-93
2023/04/23 12:29:06;;;;;;;7.65;3.92;;;;;;;;;;4997917;28;20029;-94
2023/04/23 12:31:32;;;;;;;4.13;3.20;;;;;;;;;;4994688;28;20038;-94
2023/04/23 12:34:01;;;;;;;8.30;3.85;;;;;;;;;;4997820;28;20034;-95
2023/04/23 12:36:29;;;;;;;7.78;3.50;;;;;;;;;;4997699;28;20026;-93
2023/04/23 12:39:15;;;;;;;9.05;4.53;;;;;;;;;;4998433;28;20480;-95
2023/04/23 12:41:41;;;;;;;5.85;4.25;;;;;;;;;;4997434;28;20057;-92
2023/04/23 12:44:10;;;;;;;7.00;3.80;;;;;;;;;;4997289;28;20476;-93
2023/04/23 12:46:38;;;;;;;5.00;3.30;;;;;;;;;;4998013;28;20468;-94
2023/04/23 12:49:05;;;;;;;7.18;4.05;;;;;;;;;;4997332;28;20113;-94
2023/04/23 12:51:33;;;;;;;6.15;3.53;;;;;;;;;;4997528;28;20036;-93
2023/04/23 12:54:00;;;;;;;6.72;3.83;;;;;;;;;;4997330;28;20121;-95
2023/04/23 12:56:26;;;;;;;4.88;3.42;;;;;;;;;;4998091;28;20022;-95
2023/04/23 12:58:52;;;;;;;5.95;3.35;;;;;;;;;;4997500;28;20026;-93
2023/04/23 13:01:32;;;;;;;5.15;3.20;;;;;;;;;;4997195;28;20037;-94
2023/04/23 13:04:00;;;;;;;7.13;3.50;;;;;;;;;;4997311;28;20033;-94
2023/04/23 13:06:33;;;;;;;6.82;3.63;;;;;;;;;;4997165;28;20080;-93
2023/04/23 13:09:04;;;;;;;6.32;3.60;;;;;;;;;;4997203;28;20053;-94
2023/04/23 13:11:30;;;;;;;7.22;3.60;;;;;;;;;;4996888;28;20030;-94
2023/04/23 13:13:56;;;;;;;5.20;3.15;;;;;;;;;;4997288;28;20126;-94
2023/04/23 13:16:22;;;;;;;4.25;2.90;;;;;;;;;;4997641;28;20133;-94
2023/04/23 13:18:51;;;;;;;6.22;3.10;;;;;;;;;;4997191;28;20129;-94
2023/04/23 13:21:22;;;;;;;5.38;3.45;;;;;;;;;;4996943;28;20032;-94
2023/04/23 13:23:52;;;;;;;6.32;3.33;;;;;;;;;;4997301;28;20037;-92
2023/04/23 13:26:21;;;;;;;7.90;2.97;;;;;;;;;;4997287;28;20105;-94
2023/04/23 13:28:54;;;;;;;7.07;2.78;;;;;;;;;;4996995;28;20045;-95
2023/04/23 13:31:21;;;;;;;6.43;2.80;;;;;;;;;;4997055;28;20022;-93
2023/04/23 13:33:47;;;;;;;6.68;2.83;;;;;;;;;;4997037;28;20033;-93
2023/04/23 13:36:13;;;;;;;6.80;2.60;;;;;;;;;;4997153;28;20034;-94
2023/04/23 13:38:41;;;;;;;5.20;2.95;;;;;;;;;;4997088;28;20049;-94
2023/04/23 13:41:10;;;;;;;5.32;2.63;;;;;;;;;;4996788;28;20499;-93
2023/04/23 13:43:38;;;;;;;7.10;2.83;;;;;;;;;;4999352;28;20057;-94
2023/04/23 13:46:05;;;;;;;4.63;2.45;;;;;;;;;;5000595;28;20033;-93
2023/04/23 13:48:32;;;;;;;6.03;3.75;;;;;;;;;;5000896;28;20022;-95
2023/04/23 13:51:01;;;;;;;7.97;2.88;;;;;;;;;;5000443;28;20029;-94
2023/04/23 13:53:35;;;;;;;10.48;2.83;;;;;;;;;;4992643;28;20045;-93
2023/04/23 13:56:01;;;;;;;4.53;2.70;;;;;;;;;;5000513;28;20476;-94
2023/04/23 13:58:27;;;;;;;5.43;2.80;;;;;;;;;;5000434;28;20057;-93
2023/04/23 14:00:53;;;;;;;6.00;3.20;;;;;;;;;;5000442;28;20044;-94
2023/04/23 14:03:20;;;;;;;7.13;3.15;;;;;;;;;;5000772;28;20368;-94
2023/04/23 14:05:46;;;;;;;13.93;6.80;;;;;;;;;;5000486;28;20029;-93
2023/04/23 14:08:12;;;;;;;12.00;7.28;;;;;;;;;;5000280;28;20017;-94
2023/04/23 14:10:49;;;;;;;;;;;;;;;;;;;;;
2023/04/23 14:13:15;;;;;;;15.15;7.43;;;;;;;;;;5017577;28;20074;-93
2023/04/23 14:15:42;;;;;;;11.82;5.13;;;;;;;;;;5000194;28;20041;-92
2023/04/23 14:18:08;;;;;;;12.32;3.83;;;;;;;;;;4999950;28;20030;-92
2023/04/23 14:20:34;;;;;;;13.38;7.93;;;;;;;;;;4999777;28;20446;-93
2023/04/23 14:23:11;;;;;;;17.65;10.10;;;;;;;;;;4999993;28;20026;-93
2023/04/23 14:25:43;;;;;;;11.75;6.55;;;;;;;;;;5000131;28;20018;-95
2023/04/23 14:28:09;;;;;;;;;;;;;;;;;;5000518;28;20030;-94
2023/04/23 14:30:35;;;;;;;11.85;4.60;;;;;;;;;;4999853;28;19909;-93
2023/04/23 14:33:01;;;;;;;6.40;3.30;;;;;;;;;;4999800;28;20076;-93
2023/04/23 14:35:30;;;;;;;7.70;3.10;;;;;;;;;;4999735;28;20058;-93
2023/04/23 14:37:56;;;;;;;8.68;4.15;;;;;;;;;;5000465;28;20044;-93
2023/04/23 14:40:22;;;;;;;8.65;4.85;;;;;;;;;;4999600;28;20026;-94
2023/04/23 14:42:49;;;;;;;6.30;4.10;;;;;;;;;;4999602;28;20077;-94
2023/04/23 14:45:19;;;;;;;7.97;4.00;;;;;;;;;;4999594;28;20037;-93